Time;durP1;ratioP1;P1;durP2;ratioP2;P2;SDS_P1;SDS_P2;PMS_P1;PMS_P2;Temp;Humidity;BMP_temperature;BMP_pressure;BME280_temperature;BME280_humidity;BME280_pressure;Samples;Min_cycle;Max_cycle;Signal;HPM_P1;HPM_P2
2022/10/28 00:01:04;;;;;;;;;;;;;;;13.71;52.36;101401.88;4880936;28;121247;-67
2022/10/28 00:03:30;;;;;;;;;;;;;;;13.72;52.46;101411.66;4867787;28;124974;-67
2022/10/28 00:06:03;;;;;;;;;;;;;;;13.72;52.82;101406.25;4871325;28;102321;-66
2022/10/28 00:08:29;;;;;;;;;;;;;;;13.72;52.61;101408.94;4874404;28;98748;-67
2022/10/28 00:11:04;;;;;;;;;;;;;;;13.70;52.72;101409.19;4876651;28;106624;-67
2022/10/28 00:13:30;;;;;;;;;;;;;;;13.70;52.63;101401.06;4872418;28;117607;-66
2022/10/28 00:16:03;;;;;;;;;;;;;;;13.72;52.49;101406.25;4874203;28;123729;-67
2022/10/28 00:18:29;;;;;;;;;;;;;;;13.73;52.39;101400.53;4870895;28;127937;-67
2022/10/28 00:21:03;;;;;;;;;;;;;;;13.74;52.38;101406.78;4884061;28;99653;-67
2022/10/28 00:23:29;;;;;;;;;;;;;;;13.73;52.79;101424.13;4878505;28;108346;-67
2022/10/28 00:25:55;;;;;;;;;;;;;;;13.72;52.44;101423.31;4869512;28;98626;-66
2022/10/28 00:28:20;;;;;;;;;;;;;;;13.71;52.46;101434.41;4873419;28;103455;-67
2022/10/28 00:30:46;;;;;;;;;;;;;;;13.68;52.39;101430.34;4874993;28;128095;-66
2022/10/28 00:33:12;;;;;;;;;;;;;;;13.67;52.36;101425.97;4874801;28;127872;-66
2022/10/28 00:35:38;;;;;;;;;;;;;;;13.67;52.40;101427.88;4873304;28;123596;-67
2022/10/28 00:38:04;;;;;;;;;;;;;;;13.66;52.74;101431.66;4874072;28;128151;-66
2022/10/28 00:40:33;;;;;;;;;;;;;;;13.63;52.54;101422.16;4872291;28;127835;-67
2022/10/28 00:42:59;;;;;;;;;;;;;;;13.60;52.78;101420.00;4875265;28;100147;-67
2022/10/28 00:45:25;;;;;;;;;;;;;;;13.58;52.35;101416.75;4882255;28;123193;-67
2022/10/28 00:47:59;;;;;;;;;;;;;;;13.55;52.57;101421.88;4864260;28;127747;-66
2022/10/28 00:50:47;;;;;;;;;;;;;;;13.52;52.40;101417.81;4881643;28;98923;-66
2022/10/28 00:53:21;;;;;;;;;;;;;;;13.49;52.81;101419.13;4876383;28;98363;-67
2022/10/28 00:55:47;;;;;;;;;;;;;;;13.47;52.75;101417.75;4875178;28;119232;-65
2022/10/28 00:58:13;;;;;;;;;;;;;;;13.45;52.88;101418.03;4873725;28;99253;-66
2022/10/28 01:00:39;;;;;;;;;;;;;;;13.43;52.64;101414.75;4869488;28;125792;-66
2022/10/28 01:03:05;;;;;;;;;;;;;;;13.43;52.56;101420.19;4872908;28;128564;-68
2022/10/28 01:05:32;;;;;;;;;;;;;;;13.43;52.83;101409.34;4875330;28;97982;-67
2022/10/28 01:08:01;;;;;;;;;;;;;;;13.41;52.42;101408.81;4861880;28;99373;-66
2022/10/28 01:10:42;;;;;;;;;;;;;;;13.41;52.55;101403.41;4869831;28;99060;-66
2022/10/28 01:13:35;;;;;;;;;;;;;;;13.40;52.63;101404.47;4875042;28;98293;-66
2022/10/28 01:16:23;;;;;;;;;;;;;;;13.40;52.70;101406.34;4874472;28;98069;-66
2022/10/28 01:18:59;;;;;;;;;;;;;;;13.38;52.44;101403.91;4881474;28;99034;-67
2022/10/28 01:21:49;;;;;;;;;;;;;;;13.36;52.76;101403.38;4868831;28;125804;-67
2022/10/28 01:24:40;;;;;;;;;;;;;;;13.35;52.58;101404.44;4879094;28;124109;-67
2022/10/28 01:27:11;;;;;;;;;;;;;;;13.35;52.38;101404.44;4881961;28;121472;-66
2022/10/28 01:29:59;;;;;;;;;;;;;;;13.33;52.40;101403.09;4875447;28;98913;-67
2022/10/28 01:32:39;;;;;;;;;;;;;;;13.34;52.79;101402.00;4866551;28;99271;-67
2022/10/28 01:35:29;;;;;;;;;;;;;;;13.33;52.56;101403.09;4859674;28;97906;-67
2022/10/28 01:38:24;;;;;;;;;;;;;;;13.33;52.44;101400.38;4877277;28;111836;-66
2022/10/28 01:41:03;;;;;;;;;;;;;;;13.30;52.72;101385.47;4882570;28;98668;-67
2022/10/28 01:43:44;;;;;;;;;;;;;;;13.29;52.66;101383.03;4872613;28;98091;-66
2022/10/28 01:46:11;;;;;;;;;;;;;;;13.29;52.73;101388.44;4864126;28;115215;-67
2022/10/28 01:48:40;;;;;;;;;;;;;;;13.28;52.70;101384.91;4877896;28;117953;-66
2022/10/28 01:51:25;;;;;;;;;;;;;;;13.29;52.91;101386.56;4877190;28;121113;-66
2022/10/28 01:53:51;;;;;;;;;;;;;;;13.29;52.49;101381.13;4873113;28;126063;-67
2022/10/28 01:56:20;;;;;;;;;;;;;;;13.30;52.69;101385.47;4868274;28;104142;-66
2022/10/28 01:58:46;;;;;;;;;;;;;;;13.29;52.42;101383.84;4856425;28;98168;-67
2022/10/28 02:01:12;;;;;;;;;;;;;;;13.31;52.80;101388.97;4863442;28;128428;-66
2022/10/28 02:03:38;;;;;;;;;;;;;;;13.31;52.43;101391.69;4876590;28;128864;-66
2022/10/28 02:06:11;;;;;;;;;;;;;;;13.30;52.96;101388.16;4865148;28;127678;-67
2022/10/28 02:08:46;;;;;;;;;;;;;;;13.33;52.64;101387.66;4876674;28;119004;-66
2022/10/28 02:11:21;;;;;;;;;;;;;;;13.33;52.60;101384.94;4874612;28;98313;-66
2022/10/28 02:14:14;;;;;;;;;;;;;;;13.34;52.32;101370.31;4871538;28;99216;-67
2022/10/28 02:16:55;;;;;;;;;;;;;;;13.35;52.46;101368.44;4865835;28;98093;-67
2022/10/28 02:19:29;;;;;;;;;;;;;;;13.35;52.48;101360.31;4869712;28;97974;-66
2022/10/28 02:22:14;;;;;;;;;;;;;;;13.35;52.60;101355.69;4865424;28;126292;-67
2022/10/28 02:24:53;;;;;;;;;;;;;;;13.36;52.37;101368.19;4879404;28;128751;-68
2022/10/28 02:27:30;;;;;;;;;;;;;;;13.37;52.60;101367.09;4875142;28;98722;-66
2022/10/28 02:30:03;;;;;;;;;;;;;;;13.37;52.76;101366.28;4869667;28;97999;-67
2022/10/28 02:32:29;;;;;;;;;;;;;;;13.39;52.31;101354.09;4856147;28;128623;-67
2022/10/28 02:34:58;;;;;;;;;;;;;;;13.40;52.42;101357.59;4873070;28;125735;-66
2022/10/28 02:37:27;;;;;;;;;;;;;;;13.40;52.81;101357.59;4859237;28;117461;-67
2022/10/28 02:39:55;;;;;;;;;;;;;;;13.41;52.60;101353.84;4861479;28;102136;-66
2022/10/28 02:42:29;;;;;;;;;;;;;;;13.41;52.50;101353.84;4863542;28;127764;-66
2022/10/28 02:45:06;;;;;;;;;;;;;;;13.41;52.75;101340.31;4878646;28;120515;-66
2022/10/28 02:47:34;;;;;;;;;;;;;;;13.41;52.45;101337.59;4858570;28;98655;-66
2022/10/28 02:50:02;;;;;;;;;;;;;;;13.40;52.83;101338.66;4867870;28;119987;-68
2022/10/28 02:52:29;;;;;;;;;;;;;;;13.40;52.85;101339.50;4870465;28;120606;-67
2022/10/28 02:54:57;;;;;;;;;;;;;;;13.43;53.05;101338.13;4870479;28;98206;-68
2022/10/28 02:57:24;;;;;;;;;;;;;;;13.43;52.61;101338.13;4858906;28;98223;-66
2022/10/28 02:59:52;;;;;;;;;;;;;;;13.42;52.79;101334.59;4879195;28;98200;-67
2022/10/28 03:02:18;;;;;;;;;;;;;;;13.44;52.90;101328.91;4871983;28;125518;-67
2022/10/28 03:04:43;;;;;;;;;;;;;;;13.47;52.63;101333.81;4865819;28;128284;-66
2022/10/28 03:07:09;;;;;;;;;;;;;;;13.46;52.68;101338.41;4873533;28;127035;-66
2022/10/28 03:09:35;;;;;;;;;;;;;;;13.48;52.81;101340.88;4880322;28;123407;-66
2022/10/28 03:12:01;;;;;;;;;;;;;;;13.49;52.62;101340.59;4870560;28;127442;-68
2022/10/28 03:14:27;;;;;;;;;;;;;;;13.49;52.64;101326.25;4870862;28;129068;-66
2022/10/28 03:16:53;;;;;;;;;;;;;;;13.48;52.51;101330.03;4870252;28;126829;-67
2022/10/28 03:19:19;;;;;;;;;;;;;;;13.48;52.85;101338.97;4878872;28;121531;-67
2022/10/28 03:21:45;;;;;;;;;;;;;;;13.47;52.53;101329.19;4879933;28;128028;-67
2022/10/28 03:24:11;;;;;;;;;;;;;;;13.47;52.56;101331.91;4878969;28;127289;-67
2022/10/28 03:26:36;;;;;;;;;;;;;;;13.48;52.78;101332.75;4868498;28;104823;-66
2022/10/28 03:29:02;;;;;;;;;;;;;;;13.49;52.77;101332.47;4872822;28;122702;-67
2022/10/28 03:31:28;;;;;;;;;;;;;;;13.51;52.71;101327.59;4874926;28;127414;-66
2022/10/28 03:33:54;;;;;;;;;;;;;;;13.52;52.61;101328.44;4874192;28;128292;-68
2022/10/28 03:36:20;;;;;;;;;;;;;;;13.53;52.87;101327.34;4870496;28;101311;-66
2022/10/28 03:38:46;;;;;;;;;;;;;;;13.55;52.52;101318.94;4868647;28;122375;-67
2022/10/28 03:41:12;;;;;;;;;;;;;;;13.57;52.65;101320.31;4879011;28;114748;-67
2022/10/28 03:43:38;;;;;;;;;;;;;;;13.60;52.92;101318.97;4881865;28;127206;-66
2022/10/28 03:46:04;;;;;;;;;;;;;;;13.62;52.64;101323.03;4873736;28;128074;-66
2022/10/28 03:48:30;;;;;;;;;;;;;;;13.66;52.89;101334.13;4868805;28;115201;-67
2022/10/28 03:50:56;;;;;;;;;;;;;;;13.67;52.71;101325.75;4854478;28;129120;-67
2022/10/28 03:53:22;;;;;;;;;;;;;;;13.69;52.79;101329.00;4876815;28;98291;-67
2022/10/28 03:55:55;;;;;;;;;;;;;;;13.70;52.70;101329.81;4873793;28;126743;-67
2022/10/28 03:58:21;;;;;;;;;;;;;;;13.72;52.61;101333.91;4872376;28;99334;-66
2022/10/28 04:00:50;;;;;;;;;;;;;;;13.73;52.67;101332.00;4865728;28;123567;-66
2022/10/28 04:03:16;;;;;;;;;;;;;;;13.73;52.60;101332.00;4876324;28;128665;-67
2022/10/28 04:05:42;;;;;;;;;;;;;;;13.72;52.61;101338.50;4878444;28;98337;-67
2022/10/28 04:08:08;;;;;;;;;;;;;;;13.72;52.79;101333.91;4871406;28;123375;-66
2022/10/28 04:10:34;;;;;;;;;;;;;;;13.71;52.63;101326.81;4867769;28;125413;-67
2022/10/28 04:13:01;;;;;;;;;;;;;;;13.70;52.62;101330.63;4863029;28;110262;-66
2022/10/28 04:15:27;;;;;;;;;;;;;;;13.70;52.73;101329.81;4875493;28;98476;-66
2022/10/28 04:17:53;;;;;;;;;;;;;;;13.68;52.86;101330.09;4875987;28;122608;-67
2022/10/28 04:20:19;;;;;;;;;;;;;;;13.66;52.56;101329.53;4872314;28;128114;-66
2022/10/28 04:22:45;;;;;;;;;;;;;;;13.63;52.60;101326.53;4865936;28;126783;-67
2022/10/28 04:25:11;;;;;;;;;;;;;;;13.60;52.72;101333.31;4874736;28;98313;-66
2022/10/28 04:27:37;;;;;;;;;;;;;;;13.61;53.00;101331.44;4877215;28;98078;-66
2022/10/28 04:30:03;;;;;;;;;;;;;;;13.58;52.54;101327.34;4876580;28;127268;-66
2022/10/28 04:32:29;;;;;;;;;;;;;;;13.56;52.80;101324.09;4870660;28;117630;-67
2022/10/28 04:34:55;;;;;;;;;;;;;;;13.54;52.81;101322.72;4869228;28;127311;-67
2022/10/28 04:37:21;;;;;;;;;;;;;;;13.53;52.84;101327.34;4875360;28;115614;-66
2022/10/28 04:39:47;;;;;;;;;;;;;;;13.51;52.98;101324.88;4880076;28;128225;-66
2022/10/28 04:42:13;;;;;;;;;;;;;;;13.49;52.92;101323.53;4868040;28;125911;-67
2022/10/28 04:44:38;;;;;;;;;;;;;;;13.48;52.71;101328.16;4865479;28;98066;-67
2022/10/28 04:47:04;;;;;;;;;;;;;;;13.46;52.85;101327.59;4858026;28;120993;-66
2022/10/28 04:49:30;;;;;;;;;;;;;;;13.45;53.00;101323.25;4873822;28;128910;-66
2022/10/28 04:51:56;;;;;;;;;;;;;;;13.45;52.94;101317.03;4869301;28;128129;-67
2022/10/28 04:54:22;;;;;;;;;;;;;;;13.44;52.82;101312.66;4870345;28;98057;-67
2022/10/28 04:56:48;;;;;;;;;;;;;;;13.43;52.68;101308.34;4867277;28;122505;-66
2022/10/28 04:59:14;;;;;;;;;;;;;;;13.40;52.63;101306.16;4875247;28;128543;-66
2022/10/28 05:01:40;;;;;;;;;;;;;;;13.39;52.65;101309.94;4876037;28;127760;-66
2022/10/28 05:04:06;;;;;;;;;;;;;;;13.38;53.03;101308.31;4861532;28;127743;-67
2022/10/28 05:06:32;;;;;;;;;;;;;;;13.35;52.79;101301.53;4867739;28;123395;-66
2022/10/28 05:08:57;;;;;;;;;;;;;;;13.34;53.02;101299.91;4868620;28;126681;-67
2022/10/28 05:11:23;;;;;;;;;;;;;;;13.32;52.83;101296.66;4873826;28;127571;-66
2022/10/28 05:13:51;;;;;;;;;;;;;;;13.30;52.94;101301.53;4873482;28;126397;-66
2022/10/28 05:16:17;;;;;;;;;;;;;;;13.28;53.08;101298.25;4871080;28;98199;-66
2022/10/28 05:18:43;;;;;;;;;;;;;;;13.28;52.68;101300.97;4862597;28;128735;-65
2022/10/28 05:21:09;;;;;;;;;;;;;;;13.27;52.92;101302.06;4870865;28;128658;-67
2022/10/28 05:23:35;;;;;;;;;;;;;;;13.25;53.00;101304.22;4877371;28;127884;-67
2022/10/28 05:26:01;;;;;;;;;;;;;;;13.26;52.93;101308.56;4870431;28;121900;-67
2022/10/28 05:28:27;;;;;;;;;;;;;;;13.24;53.04;101314.25;4866032;28;124219;-65
2022/10/28 05:30:53;;;;;;;;;;;;;;;13.24;53.08;101306.13;4877588;28;98672;-66
2022/10/28 05:33:19;;;;;;;;;;;;;;;13.22;52.74;101304.72;4871024;28;103841;-66
2022/10/28 05:35:45;;;;;;;;;;;;;;;13.22;53.03;101320.97;4868857;28;121042;-67
2022/10/28 05:38:11;;;;;;;;;;;;;;;13.19;53.07;101313.38;4870919;28;98442;-66
2022/10/28 05:40:37;;;;;;;;;;;;;;;13.19;52.96;101332.31;4867548;28;128459;-66
2022/10/28 05:43:03;;;;;;;;;;;;;;;13.14;52.82;101310.63;4862890;28;126773;-66
2022/10/28 05:45:29;;;;;;;;;;;;;;;13.14;52.90;101305.22;4874205;28;121615;-67
2022/10/28 05:47:55;;;;;;;;;;;;;;;13.12;52.82;101307.38;4869748;28;98224;-66
2022/10/28 05:50:21;;;;;;;;;;;;;;;13.09;52.80;101310.63;4866244;28;98103;-67
2022/10/28 05:52:54;;;;;;;;;;;;;;;13.07;52.77;101307.34;4871132;28;97989;-67
2022/10/28 05:55:21;;;;;;;;;;;;;;;13.07;52.98;101307.34;4868700;28;117878;-66
2022/10/28 05:57:47;;;;;;;;;;;;;;;13.06;52.74;101311.97;4870263;28;125868;-67
2022/10/28 06:00:14;;;;;;;;;;;;;;;13.05;53.09;101304.94;4871402;28;103718;-66
2022/10/28 06:02:40;;;;;;;;;;;;;;;13.07;52.68;101323.59;4869296;28;127993;-66
2022/10/28 06:05:06;;;;;;;;;;;;;;;13.09;52.77;101316.03;4870079;28;105417;-66
2022/10/28 06:07:33;;;;;;;;;;;;;;;13.10;52.80;101314.97;4874931;28;98120;-67
2022/10/28 06:09:59;;;;;;;;;;;;;;;13.11;52.92;101322.81;4872868;28;99005;-68
2022/10/28 06:12:25;;;;;;;;;;;;;;;13.13;52.72;101315.25;4869978;28;107377;-67
2022/10/28 06:14:51;;;;;;;;;;;;;;;13.15;52.68;101312.25;4865207;28;122667;-67
2022/10/28 06:17:17;;;;;;;;;;;;;;;13.17;52.72;101310.13;4870220;28;127973;-66
2022/10/28 06:19:43;;;;;;;;;;;;;;;13.20;52.72;101326.66;4871451;28;129189;-67
2022/10/28 06:22:09;;;;;;;;;;;;;;;13.23;52.83;101331.53;4870661;28;127226;-66
2022/10/28 06:24:35;;;;;;;;;;;;;;;13.26;52.62;101330.22;4864897;28;101347;-67
2022/10/28 06:27:01;;;;;;;;;;;;;;;13.26;52.36;101322.91;4872728;28;127348;-66
2022/10/28 06:29:27;;;;;;;;;;;;;;;13.32;52.34;101334.56;4870231;28;128635;-66
2022/10/28 06:31:53;;;;;;;;;;;;;;;13.36;52.61;101329.44;4870907;28;128471;-67
2022/10/28 06:34:18;;;;;;;;;;;;;;;13.39;52.67;101332.44;4870623;28;122810;-66
2022/10/28 06:36:44;;;;;;;;;;;;;;;13.41;52.51;101330.28;4874980;28;129009;-67
2022/10/28 06:39:10;;;;;;;;;;;;;;;13.45;52.45;101334.09;4874488;28;128582;-66
2022/10/28 06:41:36;;;;;;;;;;;;;;;13.49;52.19;101342.50;4876165;28;127458;-66
2022/10/28 06:44:02;;;;;;;;;;;;;;;13.51;52.39;101338.41;4876382;28;124008;-67
2022/10/28 06:46:28;;;;;;;;;;;;;;;13.56;52.15;101336.81;4869797;28;99174;-66
2022/10/28 06:48:54;;;;;;;;;;;;;;;13.61;52.11;101340.38;4866096;28;128504;-67
2022/10/28 06:51:20;;;;;;;;;;;;;;;13.66;52.12;101332.25;4872156;28;126841;-66
2022/10/28 06:53:52;;;;;;;;;;;;;;;13.72;52.34;101333.91;4872035;28;123733;-66
2022/10/28 06:56:18;;;;;;;;;;;;;;;13.79;52.38;101327.41;4870631;28;98468;-67
2022/10/28 06:58:49;;;;;;;;;;;;;;;13.83;51.92;101329.28;4877262;28;127962;-67
2022/10/28 07:01:15;;;;;;;;;;;;;;;13.88;52.21;101332.03;4859761;28;98148;-66
2022/10/28 07:03:41;;;;;;;;;;;;;;;13.93;52.35;101332.03;4875215;28;120889;-67
2022/10/28 07:06:07;;;;;;;;;;;;;;;13.99;52.03;101336.41;4871352;28;128296;-66
2022/10/28 07:08:33;;;;;;;;;;;;;;;14.05;52.19;101336.38;4870170;28;127785;-66
2022/10/28 07:10:59;;;;;;;;;;;;;;;14.09;51.87;101340.19;4866618;28;127759;-67
2022/10/28 07:13:25;;;;;;;;;;;;;;;14.15;51.87;101341.84;4866849;28;98275;-67
2022/10/28 07:15:52;;;;;;;;;;;;;;;14.21;51.82;101343.44;4871427;28;116415;-66
2022/10/28 07:18:18;;;;;;;;;;;;;;;14.27;52.06;101344.28;4870489;28;99130;-66
2022/10/28 07:20:44;;;;;;;;;;;;;;;14.33;52.00;101352.13;4869793;28;98921;-67
2022/10/28 07:23:10;;;;;;;;;;;;;;;14.39;52.10;101351.06;4874044;28;121406;-67
2022/10/28 07:25:36;;;;;;;;;;;;;;;14.44;52.10;101345.63;4872439;28;121818;-67
2022/10/28 07:28:02;;;;;;;;;;;;;;;14.51;51.91;101350.81;4870741;28;128206;-67
2022/10/28 07:30:28;;;;;;;;;;;;;;;14.58;51.84;101355.94;4867290;28;127435;-67
2022/10/28 07:32:54;;;;;;;;;;;;;;;14.67;51.93;101362.47;4866228;28;121466;-67
2022/10/28 07:35:20;;;;;;;;;;;;;;;14.77;51.58;101358.91;4869563;28;98419;-67
2022/10/28 07:37:46;;;;;;;;;;;;;;;14.88;51.74;101360.53;4872167;28;113749;-67
2022/10/28 07:40:12;;;;;;;;;;;;;;;14.99;51.49;101370.28;4870067;28;127560;-67
2022/10/28 07:42:38;;;;;;;;;;;;;;;15.04;51.71;101355.88;4871306;28;98023;-67
2022/10/28 07:45:04;;;;;;;;;;;;;;;15.13;51.58;101357.78;4870695;28;128367;-67
2022/10/28 07:47:30;;;;;;;;;;;;;;;15.21;51.36;101359.91;4868080;28;98131;-67
2022/10/28 07:49:56;;;;;;;;;;;;;;;15.28;51.45;101356.88;4875589;28;128626;-67
2022/10/28 07:52:22;;;;;;;;;;;;;;;15.39;51.31;101352.22;4879119;28;98043;-67
2022/10/28 07:54:49;;;;;;;;;;;;;;;15.59;51.12;101352.13;4875008;28;99124;-67
2022/10/28 07:57:15;;;;;;;;;;;;;;;15.84;50.65;101355.84;4876860;28;118333;-66
2022/10/28 07:59:41;;;;;;;;;;;;;;;16.11;50.54;101349.94;4875300;28;127284;-67
2022/10/28 08:02:08;;;;;;;;;;;;;;;16.48;50.15;101346.69;4880979;28;98157;-67
2022/10/28 08:04:33;;;;;;;;;;;;;;;16.81;49.69;101345.03;4882833;28;124411;-67
2022/10/28 08:06:59;;;;;;;;;;;;;;;17.31;49.11;101350.19;4874973;28;128089;-67
2022/10/28 08:09:25;;;;;;;;;;;;;;;17.88;48.47;101346.47;4867876;28;108979;-67
2022/10/28 08:11:55;;;;;;;;;;;;;;;18.46;48.20;101345.28;4875758;28;122581;-67
2022/10/28 08:14:21;;;;;;;;;;;;;;;18.98;47.69;101354.22;4875487;28;98968;-68
2022/10/28 08:16:46;;;;;;;;;;;;;;;19.40;47.62;101365.94;4876591;28;128204;-67
2022/10/28 08:19:12;;;;;;;;;;;;;;;18.92;48.72;101365.53;4875357;28;128618;-67
2022/10/28 08:21:38;;;;;;;;;;;;;;;18.70;49.39;101372.47;4870890;28;98066;-67
2022/10/28 08:24:05;;;;;;;;;;;;;;;18.51;49.68;101368.94;4868023;28;98708;-67
2022/10/28 08:26:30;;;;;;;;;;;;;;;18.36;50.08;101370.03;4875191;28;116269;-67
2022/10/28 08:28:57;;;;;;;;;;;;;;;18.28;50.29;101366.06;4856862;28;127295;-67
2022/10/28 08:31:23;;;;;;;;;;;;;;;18.18;50.56;101363.47;4870156;28;98122;-67
2022/10/28 08:33:48;;;;;;;;;;;;;;;19.06;49.22;101352.69;4876244;28;127034;-68
2022/10/28 08:36:15;;;;;;;;;;;;;;;19.41;48.72;101351.16;4870831;28;128487;-68
2022/10/28 08:38:45;;;;;;;;;;;;;;;19.97;48.31;101346.41;4880862;28;98114;-68
2022/10/28 08:41:32;;;;;;;;;;;;;;;20.15;48.37;101348.16;4878559;28;97919;-68
2022/10/28 08:44:20;;;;;;;;;;;;;;;20.74;47.92;101353.56;4866617;28;99100;-67
2022/10/28 08:46:52;;;;;;;;;;;;;;;21.22;47.64;101359.09;4876761;28;98325;-67
2022/10/28 08:49:20;;;;;;;;;;;;;;;21.57;47.48;101348.22;4882051;28;98607;-67
2022/10/28 08:52:30;;;;;;;;;;;;;;;21.94;47.53;101344.06;4868821;28;112885;-67
2022/10/28 08:55:05;;;;;;;;;;;;;;;22.37;47.41;101342.44;4839227;28;123088;-67
2022/10/28 08:57:45;;;;;;;;;;;;;;;22.62;47.54;101349.81;4870078;28;107316;-67
2022/10/28 09:00:30;;;;;;;;;;;;;;;22.93;47.32;101357.03;4877178;28;98210;-67
2022/10/28 09:03:11;;;;;;;;;;;;;;;23.21;47.46;101349.94;4846236;28;120752;-67
2022/10/28 09:05:38;;;;;;;;;;;;;;;23.50;47.45;101342.78;4863717;28;98606;-68
2022/10/28 09:08:04;;;;;;;;;;;;;;;23.73;47.46;101343.31;4872350;28;125635;-67
2022/10/28 09:10:53;;;;;;;;;;;;;;;23.98;47.45;101338.75;4878608;28;124003;-68
2022/10/28 09:13:47;;;;;;;;;;;;;;;24.29;47.26;101329.22;4879709;28;98235;-67
2022/10/28 09:16:33;;;;;;;;;;;;;;;24.59;47.28;101332.66;4872816;28;98619;-67
2022/10/28 09:19:03;;;;;;;;;;;;;;;24.60;47.55;101324.06;4868571;28;127440;-68
2022/10/28 09:21:32;;;;;;;;;;;;;;;24.35;47.97;101322.38;4854603;28;98325;-67
2022/10/28 09:23:59;;;;;;;;;;;;;;;24.12;48.09;101322.75;4881006;28;98042;-68
2022/10/28 09:26:51;;;;;;;;;;;;;;;24.06;48.27;101315.06;4869687;28;98838;-68
2022/10/28 09:29:35;;;;;;;;;;;;;;;24.19;48.35;101309.22;4864473;28;98135;-67
2022/10/28 09:32:11;;;;;;;;;;;;;;;24.42;47.68;101315.19;4871749;28;119872;-68
2022/10/28 09:34:44;;;;;;;;;;;;;;;24.32;48.25;101309.25;4873072;28;121756;-67
2022/10/28 09:37:18;;;;;;;;;;;;;;;24.07;48.34;101297.38;4858469;28;124442;-67
2022/10/28 09:39:52;;;;;;;;;;;;;;;23.88;48.82;101298.66;4875143;28;116594;-67
2022/10/28 09:42:24;;;;;;;;;;;;;;;23.72;48.77;101294.94;4866818;28;98932;-67
2022/10/28 09:45:01;;;;;;;;;;;;;;;23.44;48.91;101289.13;4865919;28;113823;-67
2022/10/28 09:47:36;;;;;;;;;;;;;;;23.21;49.51;101286.69;4878665;28;117061;-67
2022/10/28 09:50:06;;;;;;;;;;;;;;;23.00;49.62;101280.34;4865671;28;124298;-67
2022/10/28 09:52:55;;;;;;;;;;;;;;;22.82;49.63;101287.03;4875436;28;98714;-67
2022/10/28 09:55:21;;;;;;;;;;;;;;;22.66;50.03;101284.03;4875467;28;97919;-67
2022/10/28 09:57:47;;;;;;;;;;;;;;;22.48;49.90;101286.84;4873020;28;98141;-67
2022/10/28 10:00:13;;;;;;;;;;;;;;;22.37;49.96;101271.84;4876282;28;98829;-67
2022/10/28 10:02:41;;;;;;;;;;;;;;;22.27;50.09;101274.94;4867838;28;119788;-67
2022/10/28 10:05:11;;;;;;;;;;;;;;;22.20;50.03;101280.13;4868267;28;98088;-67
2022/10/28 10:07:39;;;;;;;;;;;;;;;22.19;50.09;101278.50;4862047;28;100366;-67
2022/10/28 10:10:16;;;;;;;;;;;;;;;22.14;49.99;101276.75;4871274;28;98475;-67
2022/10/28 10:12:43;;;;;;;;;;;;;;;22.43;49.57;101267.78;4861251;28;127113;-67
2022/10/28 10:15:13;;;;;;;;;;;;;;;22.50;49.46;101264.53;4875272;28;98435;-67
2022/10/28 10:17:43;;;;;;;;;;;;;;;23.01;48.54;101263.50;4856213;28;128246;-67
2022/10/28 10:20:10;;;;;;;;;;;;;;;23.88;47.37;101270.34;4873015;28;122913;-66
2022/10/28 10:22:40;;;;;;;;;;;;;;;25.17;45.64;101265.28;4877377;28;108516;-67
2022/10/28 10:25:18;;;;;;;;;;;;;;;25.23;46.13;101268.63;4867348;28;102813;-68
2022/10/28 10:28:01;;;;;;;;;;;;;;;25.06;46.75;101271.59;4872447;28;98647;-67
2022/10/28 10:30:43;;;;;;;;;;;;;;;24.52;47.91;101263.53;4877336;28;98714;-68
2022/10/28 10:33:17;;;;;;;;;;;;;;;24.38;47.78;101253.66;4870911;28;125356;-67
2022/10/28 10:35:43;;;;;;;;;;;;;;;24.83;47.40;101247.25;4877141;28;100049;-68
2022/10/28 10:38:13;;;;;;;;;;;;;;;27.70;42.95;101241.72;4869388;28;129128;-68
2022/10/28 10:40:47;;;;;;;;;;;;;;;29.07;41.76;101241.75;4878727;28;127720;-68
2022/10/28 10:43:17;;;;;;;;;;;;;;;29.81;41.53;101235.56;4883272;28;98178;-67
2022/10/28 10:46:02;;;;;;;;;;;;;;;30.02;42.18;101242.53;4866150;28;98222;-67
2022/10/28 10:48:28;;;;;;;;;;;;;;;30.11;42.75;101236.69;4869403;28;98800;-67
2022/10/28 10:50:54;;;;;;;;;;;;;;;29.97;43.29;101223.44;4881160;28;98797;-67
2022/10/28 10:53:25;;;;;;;;;;;;;;;29.72;43.79;101214.84;4876640;28;98241;-66
2022/10/28 10:55:53;;;;;;;;;;;;;;;29.09;44.77;101208.13;4874921;28;98530;-68
2022/10/28 10:58:21;;;;;;;;;;;;;;;28.44;46.27;101206.31;4855490;28;99139;-67
2022/10/28 11:00:49;;;;;;;;;;;;;;;27.97;46.49;101207.47;4855622;28;102013;-66
2022/10/28 11:03:24;;;;;;;;;;;;;;;27.64;47.13;101192.19;4865349;28;98369;-68
2022/10/28 11:05:55;;;;;;;;;;;;;;;27.29;47.55;101192.28;4876953;28;97768;-66
2022/10/28 11:08:36;;;;;;;;;;;;;;;26.97;47.70;101188.00;4866674;28;99072;-68
2022/10/28 11:11:13;;;;;;;;;;;;;;;26.63;48.20;101191.19;4859462;28;98799;-67
2022/10/28 11:13:39;;;;;;;;;;;;;;;26.42;48.22;101183.16;4870877;28;98893;-67
2022/10/28 11:16:15;;;;;;;;;;;;;;;26.26;48.46;101185.13;4872674;28;97909;-67
2022/10/28 11:18:42;;;;;;;;;;;;;;;26.13;48.50;101180.84;4875682;28;98848;-68
2022/10/28 11:21:54;;;;;;;;;;;;;;;26.18;48.21;101169.53;4870892;28;99143;-67
2022/10/28 11:25:09;;;;;;;;;;;;;;;26.18;48.10;101166.78;4883915;28;98340;-68
2022/10/28 11:27:58;;;;;;;;;;;;;;;26.03;48.28;101165.63;4851571;28;122938;-67
2022/10/28 11:30:45;;;;;;;;;;;;;;;25.86;48.67;101165.94;4870648;28;98176;-67
2022/10/28 11:33:16;;;;;;;;;;;;;;;25.69;48.61;101164.28;4870549;28;98377;-67
2022/10/28 11:36:02;;;;;;;;;;;;;;;25.50;49.13;101164.94;4871501;28;128242;-68
2022/10/28 11:38:51;;;;;;;;;;;;;;;25.36;49.11;101156.28;4878984;28;98606;-67
2022/10/28 11:41:20;;;;;;;;;;;;;;;25.21;49.14;101163.34;4859789;28;120390;-67
2022/10/28 11:43:56;;;;;;;;;;;;;;;25.04;49.38;101156.13;4869482;28;98432;-68
2022/10/28 11:46:42;;;;;;;;;;;;;;;24.87;49.40;101159.13;4872668;28;120210;-66
2022/10/28 11:49:11;;;;;;;;;;;;;;;24.68;49.66;101152.28;4881123;28;98008;-67
2022/10/28 11:51:42;;;;;;;;;;;;;;;24.54;49.39;101151.03;4871904;28;98715;-67
2022/10/28 11:54:20;;;;;;;;;;;;;;;24.38;49.81;101154.47;4876272;28;98634;-67
2022/10/28 11:56:54;;;;;;;;;;;;;;;24.24;49.77;101146.53;4866945;28;126560;-67
2022/10/28 11:59:50;;;;;;;;;;;;;;;24.14;49.80;101144.22;4872005;28;122959;-67
2022/10/28 12:02:38;;;;;;;;;;;;;;;24.01;49.70;101139.84;4866871;28;104200;-66
2022/10/28 12:05:14;;;;;;;;;;;;;;;23.90;49.72;101141.44;4865910;28;98510;-67
2022/10/28 12:08:01;;;;;;;;;;;;;;;23.79;49.84;101141.06;4869840;28;126027;-67
2022/10/28 12:10:46;;;;;;;;;;;;;;;23.67;49.79;101124.53;4878881;28;98271;-67
2022/10/28 12:13:50;;;;;;;;;;;;;;;23.56;49.83;101129.63;4865864;28;128824;-67
2022/10/28 12:16:29;;;;;;;;;;;;;;;23.47;50.26;101126.97;4862917;28;98288;-67
2022/10/28 12:19:15;;;;;;;;;;;;;;;23.40;49.96;101126.72;4862472;28;125912;-67
2022/10/28 12:22:18;;;;;;;;;;;;;;;23.34;50.30;101127.25;4867072;28;98161;-67
2022/10/28 12:24:44;;;;;;;;;;;;;;;23.28;49.90;101124.72;4877942;28;98546;-67
2022/10/28 12:27:17;;;;;;;;;;;;;;;23.24;49.76;101123.78;4877429;28;124722;-67
2022/10/28 12:29:44;;;;;;;;;;;;;;;23.21;50.07;101115.41;4869518;28;123347;-67
2022/10/28 12:32:21;;;;;;;;;;;;;;;23.16;49.88;101118.38;4882182;28;118820;-67
2022/10/28 12:35:02;;;;;;;;;;;;;;;23.11;50.18;101122.13;4862045;28;99351;-67
2022/10/28 12:37:51;;;;;;;;;;;;;;;23.08;50.17;101108.25;4872257;28;101432;-68
2022/10/28 12:40:24;;;;;;;;;;;;;;;23.05;49.87;101106.16;4837315;28;98662;-67
2022/10/28 12:43:15;;;;;;;;;;;;;;;23.07;50.04;101106.63;4862316;28;98255;-67
2022/10/28 12:45:41;;;;;;;;;;;;;;;23.14;49.81;101106.88;4875766;28;98669;-67
2022/10/28 12:48:16;;;;;;;;;;;;;;;23.19;49.70;101104.75;4872070;28;128681;-67
2022/10/28 12:51:05;;;;;;;;;;;;;;;23.27;49.92;101105.81;4871648;28;126457;-66